createdAt,value
2019-03-21T00:01:02.107Z,9.00
2019-03-21T00:03:32.231Z,8.27
2019-03-21T00:06:03.108Z,7.47
2019-03-21T00:08:33.137Z,8.13
2019-03-21T00:11:40.901Z,6.97
2019-03-21T00:14:31.923Z,7.20
2019-03-21T00:17:02.086Z,7.70
2019-03-21T00:19:32.599Z,8.87
2019-03-21T00:22:02.897Z,11.10
2019-03-21T00:24:32.944Z,12.13
2019-03-21T00:27:03.060Z,9.17
2019-03-21T00:29:33.131Z,9.70
2019-03-21T00:32:03.201Z,7.17
2019-03-21T00:34:33.524Z,11.07
2019-03-21T00:37:03.632Z,10.50
2019-03-21T00:39:33.888Z,8.60
2019-03-21T00:42:03.987Z,8.93
2019-03-21T00:44:34.060Z,8.83
2019-03-21T00:47:04.200Z,10.03
2019-03-21T00:49:34.271Z,8.00
2019-03-21T00:52:04.454Z,9.37
2019-03-21T00:54:34.580Z,10.07
2019-03-21T00:57:04.813Z,9.77
2019-03-21T00:59:34.916Z,11.50
2019-03-21T01:02:05.061Z,8.23
2019-03-21T01:04:36.041Z,5.00
2019-03-21T01:07:07.286Z,10.87
2019-03-21T01:09:37.918Z,6.97
2019-03-21T01:12:08.888Z,8.93
2019-03-21T01:14:39.370Z,9.27
2019-03-21T01:17:09.527Z,8.37
2019-03-21T01:19:40.105Z,7.00
2019-03-21T01:22:10.244Z,7.77
2019-03-21T01:24:40.493Z,9.63
2019-03-21T01:27:11.496Z,8.70
2019-03-21T01:29:41.807Z,8.33
2019-03-21T01:32:12.170Z,8.10
2019-03-21T01:34:42.294Z,8.43
2019-03-21T01:37:12.849Z,10.47
2019-03-21T01:39:43.490Z,9.13
2019-03-21T01:42:13.809Z,7.20
2019-03-21T01:44:44.371Z,7.00
2019-03-21T01:47:14.887Z,10.40
2019-03-21T01:49:45.060Z,11.90
2019-03-21T01:52:15.252Z,8.50
2019-03-21T01:54:45.583Z,9.97
2019-03-21T01:57:15.842Z,7.03
2019-03-21T01:59:47.368Z,8.50
2019-03-21T02:02:17.499Z,8.40
2019-03-21T02:04:47.572Z,8.67
2019-03-21T02:07:17.657Z,8.40
2019-03-21T02:09:47.758Z,8.93
2019-03-21T02:12:17.817Z,8.40
2019-03-21T02:14:51.972Z,8.20
2019-03-21T02:17:19.791Z,10.97
2019-03-21T02:19:49.929Z,10.67
2019-03-21T02:22:20.186Z,11.73
2019-03-21T02:24:50.333Z,8.27
2019-03-21T02:27:20.441Z,9.63
2019-03-21T02:29:50.759Z,7.40
2019-03-21T02:32:20.772Z,8.20
2019-03-21T02:34:50.881Z,11.60
2019-03-21T02:37:20.949Z,9.77
2019-03-21T02:39:59.444Z,9.63
2019-03-21T02:42:23.218Z,10.47
2019-03-21T02:45:07.215Z,11.10
2019-03-21T02:47:25.067Z,9.17
2019-03-21T02:49:55.164Z,10.87
2019-03-21T02:52:25.253Z,9.40
2019-03-21T02:54:55.384Z,10.50
2019-03-21T02:57:25.547Z,11.47
2019-03-21T02:59:55.726Z,9.87
2019-03-21T03:02:25.821Z,12.40
2019-03-21T03:04:55.881Z,14.20
2019-03-21T03:07:26.067Z,11.83
2019-03-21T03:09:56.172Z,9.60
2019-03-21T03:12:26.253Z,9.67
2019-03-21T03:14:56.652Z,10.80
2019-03-21T03:17:27.838Z,9.67
2019-03-21T03:19:58.095Z,9.87
2019-03-21T03:22:28.189Z,8.20
2019-03-21T03:24:58.269Z,11.60
2019-03-21T03:27:28.695Z,9.40
2019-03-21T03:29:59.010Z,9.83
2019-03-21T03:32:29.096Z,9.80
2019-03-21T03:34:59.564Z,13.77
2019-03-21T03:37:29.995Z,9.07
2019-03-21T03:40:01.369Z,9.93
2019-03-21T03:42:31.772Z,12.20
2019-03-21T03:45:02.911Z,8.80
2019-03-21T03:47:33.245Z,12.97
2019-03-21T03:50:03.536Z,11.77
2019-03-21T03:52:33.589Z,11.47
2019-03-21T03:55:04.005Z,8.80
2019-03-21T03:57:34.065Z,9.60
2019-03-21T04:00:04.246Z,11.97
2019-03-21T04:02:34.505Z,10.87
2019-03-21T04:05:05.348Z,12.93
2019-03-21T04:07:35.450Z,12.40
2019-03-21T04:10:06.964Z,17.43
2019-03-21T04:12:37.265Z,12.40
2019-03-21T04:15:08.163Z,13.63
2019-03-21T04:17:38.465Z,13.50
2019-03-21T04:20:10.668Z,13.30
2019-03-21T04:22:40.807Z,13.67
2019-03-21T04:25:12.605Z,9.13
2019-03-21T04:27:42.764Z,13.23
2019-03-21T04:30:14.008Z,16.50
2019-03-21T04:32:44.092Z,11.20
2019-03-21T04:35:14.404Z,13.80
2019-03-21T04:37:44.487Z,15.87
2019-03-21T04:40:14.922Z,12.83
2019-03-21T04:42:45.027Z,13.93
2019-03-21T04:45:17.382Z,11.33
2019-03-21T04:47:47.460Z,11.57
2019-03-21T04:50:20.237Z,11.30
2019-03-21T04:52:50.350Z,14.60
2019-03-21T04:55:20.469Z,12.83
2019-03-21T04:57:50.666Z,15.40
2019-03-21T05:00:26.629Z,11.53
2019-03-21T05:02:58.720Z,11.30
2019-03-21T05:05:28.817Z,9.73
2019-03-21T05:07:58.883Z,11.57
2019-03-21T05:10:28.969Z,15.60
2019-03-21T05:12:59.247Z,11.47
2019-03-21T05:15:31.962Z,12.67
2019-03-21T05:18:05.559Z,16.43
2019-03-21T05:20:35.725Z,13.90
2019-03-21T05:23:05.908Z,12.10
2019-03-21T05:25:36.023Z,11.50
2019-03-21T05:28:06.281Z,11.80
2019-03-21T05:30:43.120Z,14.00
2019-03-21T05:33:13.232Z,9.93
2019-03-21T05:35:43.472Z,13.03
2019-03-21T05:38:13.556Z,13.13
2019-03-21T05:40:44.266Z,13.63
2019-03-21T05:43:20.565Z,14.37
2019-03-21T05:45:52.874Z,11.23
2019-03-21T05:48:26.987Z,10.87
2019-03-21T05:50:57.889Z,12.93
2019-03-21T05:53:29.948Z,11.10
2019-03-21T05:56:02.797Z,13.47
2019-03-21T05:58:36.847Z,10.53
2019-03-21T06:01:07.259Z,16.90
2019-03-21T06:03:47.681Z,14.03
2019-03-21T06:06:28.255Z,12.90
2019-03-21T06:08:58.697Z,12.47
2019-03-21T06:11:36.426Z,10.93
2019-03-21T06:14:07.966Z,14.40
2019-03-21T06:16:39.180Z,13.70
2019-03-21T06:19:20.237Z,13.87
2019-03-21T06:22:15.681Z,13.67
2019-03-21T06:25:11.130Z,10.57
2019-03-21T06:27:41.613Z,13.37
2019-03-21T06:30:12.842Z,17.10
2019-03-21T06:32:43.510Z,11.83
2019-03-21T06:35:26.138Z,14.80
2019-03-21T06:37:57.214Z,11.87
2019-03-21T06:40:29.456Z,19.70
2019-03-21T06:43:01.877Z,14.27
2019-03-21T06:45:35.695Z,15.20
2019-03-21T06:48:06.916Z,16.07
2019-03-21T06:50:38.458Z,20.07
2019-03-21T06:53:09.041Z,15.13
2019-03-21T06:55:42.042Z,13.10
2019-03-21T06:58:13.565Z,14.03
2019-03-21T07:00:43.998Z,15.10
2019-03-21T07:03:18.951Z,13.43
2019-03-21T07:05:54.463Z,16.30
2019-03-21T07:08:24.499Z,17.27
2019-03-21T07:10:55.217Z,12.30
2019-03-21T07:13:26.914Z,14.33
2019-03-21T07:15:57.492Z,15.40
2019-03-21T07:18:28.270Z,15.23
2019-03-21T07:21:01.121Z,15.20
2019-03-21T07:23:32.036Z,11.77
2019-03-21T07:26:03.559Z,12.63
2019-03-21T07:28:38.557Z,15.10
2019-03-21T07:31:11.350Z,17.17
2019-03-21T07:33:42.334Z,15.73
2019-03-21T07:36:12.980Z,16.53
2019-03-21T07:38:44.567Z,15.43
2019-03-21T07:41:16.398Z,17.00
2019-03-21T07:43:46.863Z,17.60
2019-03-21T07:46:19.076Z,11.87
2019-03-21T07:48:49.647Z,13.87
2019-03-21T07:51:20.427Z,16.40
2019-03-21T07:53:51.886Z,16.80
2019-03-21T07:56:24.944Z,18.83
2019-03-21T07:58:57.907Z,15.43
2019-03-21T08:01:28.409Z,14.33
2019-03-21T08:03:58.615Z,20.27
2019-03-21T08:06:28.965Z,14.07
2019-03-21T08:08:59.190Z,14.20
2019-03-21T08:11:30.920Z,13.47
2019-03-21T08:14:01.105Z,14.27
2019-03-21T08:16:31.571Z,17.40
2019-03-21T08:19:01.875Z,13.23
2019-03-21T08:21:32.315Z,14.83
2019-03-21T08:24:02.713Z,16.00
2019-03-21T08:26:33.239Z,12.87
2019-03-21T08:29:03.445Z,17.47
2019-03-21T08:31:33.754Z,13.00
2019-03-21T08:34:03.968Z,13.27
2019-03-21T08:36:34.194Z,13.17
2019-03-21T08:39:06.330Z,11.60
2019-03-21T08:41:36.719Z,12.87
2019-03-21T08:44:07.083Z,13.30
2019-03-21T08:46:37.232Z,15.73
2019-03-21T08:49:07.480Z,11.53
2019-03-21T08:51:37.774Z,15.83
2019-03-21T08:54:07.976Z,14.40
2019-03-21T08:56:38.446Z,15.33
2019-03-21T08:59:09.300Z,13.50
2019-03-21T09:01:39.523Z,12.83
2019-03-21T09:04:09.704Z,14.23
2019-03-21T09:06:40.263Z,15.80
2019-03-21T09:09:11.464Z,16.07
2019-03-21T09:11:42.045Z,12.13
2019-03-21T09:14:12.266Z,13.87
2019-03-21T09:16:42.635Z,11.20
2019-03-21T09:19:12.903Z,14.73
2019-03-21T09:21:43.326Z,11.60
2019-03-21T09:24:13.519Z,11.97
2019-03-21T09:26:44.947Z,11.30
2019-03-21T09:29:15.555Z,13.40
2019-03-21T09:31:45.847Z,15.07
2019-03-21T09:34:16.102Z,11.67
2019-03-21T09:36:46.312Z,12.47
2019-03-21T09:39:16.558Z,13.43
2019-03-21T09:41:46.837Z,10.90
2019-03-21T09:44:24.577Z,11.40
2019-03-21T09:46:54.910Z,10.57
2019-03-21T09:49:25.287Z,12.63
2019-03-21T09:51:55.532Z,11.53
2019-03-21T09:54:25.896Z,12.57
2019-03-21T09:56:56.072Z,11.57
2019-03-21T09:59:26.375Z,11.57
2019-03-21T10:01:56.664Z,13.07
2019-03-21T10:04:27.030Z,12.13
2019-03-21T10:06:57.290Z,12.53
2019-03-21T10:09:27.662Z,11.03
2019-03-21T10:11:57.950Z,10.77
2019-03-21T10:14:28.325Z,9.53
2019-03-21T10:16:58.516Z,8.83
2019-03-21T10:19:29.584Z,8.40
2019-03-21T10:21:59.809Z,8.47
2019-03-21T10:24:30.384Z,10.70
2019-03-21T10:27:01.015Z,8.97
2019-03-21T10:29:31.222Z,7.73
2019-03-21T10:32:01.378Z,7.23
2019-03-21T10:34:31.793Z,6.90
2019-03-21T10:37:02.072Z,6.30
2019-03-21T10:39:32.337Z,6.50
2019-03-21T10:42:02.503Z,6.90
2019-03-21T10:44:32.741Z,6.43
2019-03-21T10:47:03.157Z,5.90
2019-03-21T10:49:33.436Z,8.50
2019-03-21T10:52:03.728Z,4.77
2019-03-21T10:54:34.098Z,5.83
2019-03-21T10:57:04.352Z,5.50
2019-03-21T10:59:34.712Z,8.27
2019-03-21T11:02:07.620Z,7.10
2019-03-21T11:04:36.860Z,5.40
2019-03-21T11:07:04.803Z,5.37
2019-03-21T11:09:34.966Z,5.40
2019-03-21T11:12:05.281Z,8.43
2019-03-21T11:14:35.831Z,5.10
2019-03-21T11:17:06.026Z,5.47
2019-03-21T11:19:36.436Z,6.97
2019-03-21T11:22:06.843Z,7.97
2019-03-21T11:24:37.311Z,9.50
2019-03-21T11:27:07.757Z,5.22
2019-03-21T11:29:38.332Z,7.25
2019-03-21T11:32:08.599Z,6.62
2019-03-21T11:34:38.891Z,6.35
2019-03-21T11:37:09.700Z,5.70
2019-03-21T11:39:39.874Z,6.62
2019-03-21T11:42:10.094Z,6.78
2019-03-21T11:44:40.336Z,7.05
2019-03-21T11:47:10.906Z,5.75
2019-03-21T11:49:41.265Z,7.87
2019-03-21T11:52:18.147Z,10.82
2019-03-21T11:54:43.224Z,8.00
2019-03-21T11:57:13.445Z,7.13
2019-03-21T11:59:51.511Z,6.67
2019-03-21T12:02:26.507Z,7.33
2019-03-21T12:04:47.816Z,7.17
2019-03-21T12:07:18.121Z,7.25
2019-03-21T12:09:48.531Z,7.78
2019-03-21T12:12:18.907Z,7.27
2019-03-21T12:14:51.223Z,7.12
2019-03-21T12:17:21.701Z,7.08
2019-03-21T12:19:52.052Z,6.22
2019-03-21T12:22:30.023Z,7.70
2019-03-21T12:24:54.292Z,8.05
2019-03-21T12:27:24.800Z,6.17
2019-03-21T12:29:55.707Z,5.87
2019-03-21T12:32:27.813Z,8.63
2019-03-21T12:34:58.113Z,8.75
2019-03-21T12:37:28.403Z,8.18
2019-03-21T12:39:58.619Z,9.13
2019-03-21T12:42:28.944Z,7.30
2019-03-21T12:44:59.323Z,7.28
2019-03-21T12:47:31.448Z,7.75
2019-03-21T12:50:01.161Z,7.12
2019-03-21T12:52:40.978Z,7.15
2019-03-21T12:55:03.799Z,6.30
2019-03-21T12:57:34.143Z,7.00
2019-03-21T13:00:05.546Z,7.47
2019-03-21T13:02:35.824Z,7.10
2019-03-21T13:05:07.466Z,8.60
2019-03-21T13:07:37.761Z,6.90
2019-03-21T13:10:08.066Z,6.80
2019-03-21T13:12:38.425Z,9.63
2019-03-21T13:15:08.808Z,6.55
2019-03-21T13:17:39.252Z,9.40
2019-03-21T13:20:09.967Z,6.92
2019-03-21T13:22:40.557Z,7.70
2019-03-21T13:25:12.315Z,9.25
2019-03-21T13:27:46.502Z,8.55
2019-03-21T13:30:17.230Z,7.53
2019-03-21T13:33:00.179Z,5.62
2019-03-21T13:35:42.224Z,7.50
2019-03-21T13:38:12.740Z,9.03
2019-03-21T13:40:43.090Z,7.90
2019-03-21T13:43:13.586Z,7.42
2019-03-21T13:45:45.146Z,8.40
2019-03-21T13:48:15.533Z,8.48
2019-03-21T13:50:45.857Z,7.55
2019-03-21T13:53:19.014Z,9.63
2019-03-21T13:55:48.293Z,7.67
2019-03-21T13:58:18.673Z,6.90
2019-03-21T14:00:49.431Z,7.33
2019-03-21T14:03:26.031Z,9.00
2019-03-21T14:05:56.879Z,7.08
2019-03-21T14:08:27.867Z,8.73
2019-03-21T14:11:03.371Z,7.25
2019-03-21T14:13:33.857Z,9.50
2019-03-21T14:16:05.195Z,7.40
2019-03-21T14:18:35.658Z,7.25
2019-03-21T14:21:06.140Z,8.60
2019-03-21T14:23:43.313Z,6.50
2019-03-21T14:26:08.373Z,5.70
2019-03-21T14:28:38.619Z,7.90
2019-03-21T14:31:08.797Z,8.35
2019-03-21T14:33:39.646Z,7.15
2019-03-21T14:36:10.031Z,6.80
2019-03-21T14:38:40.242Z,6.47
2019-03-21T14:41:10.530Z,9.20
2019-03-21T14:43:41.012Z,6.75
2019-03-21T14:46:11.343Z,7.45
2019-03-21T14:48:41.674Z,7.00
2019-03-21T14:51:12.063Z,8.10
2019-03-21T14:53:42.275Z,6.05
2019-03-21T14:56:12.463Z,7.15
2019-03-21T14:58:42.784Z,5.67
2019-03-21T15:01:12.944Z,5.87
2019-03-21T15:03:43.395Z,4.75
2019-03-21T15:06:13.787Z,5.90
2019-03-21T15:08:44.226Z,5.27
2019-03-21T15:11:17.313Z,7.23
2019-03-21T15:13:46.785Z,5.20
2019-03-21T15:16:17.016Z,6.37
2019-03-21T15:18:47.995Z,4.53
2019-03-21T15:21:18.185Z,6.37
2019-03-21T15:23:58.753Z,6.03
2019-03-21T15:26:29.760Z,6.87
2019-03-21T15:29:00.551Z,6.20
2019-03-21T15:31:31.486Z,6.25
2019-03-21T15:34:02.566Z,6.00
2019-03-21T15:36:34.342Z,6.65
2019-03-21T15:39:07.920Z,5.47
2019-03-21T15:41:39.236Z,6.45
2019-03-21T15:44:10.355Z,6.25
2019-03-21T15:46:41.212Z,4.80
2019-03-21T15:49:12.988Z,8.87
2019-03-21T15:51:44.296Z,6.17
2019-03-21T15:54:14.540Z,9.37
2019-03-21T15:56:44.863Z,8.10
2019-03-21T15:59:15.272Z,8.15
2019-03-21T16:01:45.623Z,8.23
2019-03-21T16:04:15.831Z,8.47
2019-03-21T16:06:46.155Z,5.83
2019-03-21T16:09:16.484Z,5.77
2019-03-21T16:11:46.873Z,6.70
2019-03-21T16:14:17.669Z,9.27
2019-03-21T16:16:47.971Z,7.83
2019-03-21T16:19:18.392Z,8.77
2019-03-21T16:21:48.645Z,7.00
2019-03-21T16:24:18.914Z,8.70
2019-03-21T16:26:49.172Z,7.30
2019-03-21T16:29:19.552Z,7.80
2019-03-21T16:31:49.774Z,8.27
2019-03-21T16:34:20.135Z,7.97
2019-03-21T16:36:50.499Z,9.60
2019-03-21T16:39:20.704Z,10.93
2019-03-21T16:41:51.286Z,9.63
2019-03-21T16:44:21.686Z,9.90
2019-03-21T16:46:52.455Z,10.77
2019-03-21T16:49:22.994Z,10.20
2019-03-21T16:51:53.514Z,11.77
2019-03-21T16:54:23.869Z,12.27
2019-03-21T16:56:54.407Z,10.70
2019-03-21T16:59:24.966Z,8.37
2019-03-21T17:01:55.530Z,9.87
2019-03-21T17:04:26.003Z,8.57
2019-03-21T17:06:56.601Z,11.87
2019-03-21T17:09:27.233Z,10.50
2019-03-21T17:11:58.050Z,8.40
2019-03-21T17:14:28.687Z,8.90
2019-03-21T17:16:59.521Z,10.27
2019-03-21T17:19:30.511Z,8.50
2019-03-21T17:22:01.215Z,11.10
2019-03-21T17:24:31.967Z,10.30
2019-03-21T17:27:02.655Z,8.83
2019-03-21T17:29:33.338Z,7.63
2019-03-21T17:32:03.822Z,6.83
2019-03-21T17:34:34.695Z,8.03
2019-03-21T17:37:05.903Z,7.03
2019-03-21T17:39:36.458Z,9.30
2019-03-21T17:42:07.354Z,5.33
2019-03-21T17:44:38.218Z,8.40
2019-03-21T17:47:08.842Z,7.90
2019-03-21T17:49:39.543Z,7.93
2019-03-21T17:52:10.191Z,8.87
2019-03-21T17:54:41.925Z,9.30
2019-03-21T17:57:34.770Z,8.33
2019-03-21T18:00:03.728Z,8.10
2019-03-21T18:02:34.496Z,9.07
2019-03-21T18:05:05.936Z,10.30
2019-03-21T18:07:37.186Z,9.73
2019-03-21T18:10:10.413Z,10.07
2019-03-21T18:12:41.264Z,10.33
2019-03-21T18:15:12.412Z,12.07
2019-03-21T18:17:45.701Z,12.50
2019-03-21T18:20:17.308Z,10.03
2019-03-21T18:22:48.433Z,10.30
2019-03-21T18:25:19.715Z,10.50
2019-03-21T18:27:50.489Z,9.33
2019-03-21T18:30:23.648Z,10.17
2019-03-21T18:32:55.623Z,9.67
2019-03-21T18:35:27.399Z,11.53
2019-03-21T18:37:58.966Z,10.17
2019-03-21T18:40:32.867Z,8.07
2019-03-21T18:43:06.275Z,10.67
2019-03-21T18:45:37.290Z,9.77
2019-03-21T18:48:08.412Z,10.40
2019-03-21T18:50:39.361Z,10.33
2019-03-21T18:53:16.678Z,9.70
2019-03-21T18:55:47.932Z,9.43
2019-03-21T18:58:18.865Z,9.43
2019-03-21T19:00:50.305Z,10.90
2019-03-21T19:03:21.142Z,12.27
2019-03-21T19:05:58.749Z,11.33
2019-03-21T19:08:27.580Z,13.63
2019-03-21T19:10:58.843Z,12.53
2019-03-21T19:13:33.231Z,16.07
2019-03-21T19:16:04.427Z,12.47
2019-03-21T19:18:35.743Z,11.87
2019-03-21T19:21:09.638Z,12.67
2019-03-21T19:23:40.883Z,11.67
2019-03-21T19:26:14.135Z,12.47
2019-03-21T19:28:45.290Z,16.97
2019-03-21T19:31:16.041Z,9.83
2019-03-21T19:33:48.306Z,9.63
2019-03-21T19:36:19.671Z,10.23
2019-03-21T19:38:53.235Z,10.50
2019-03-21T19:41:28.674Z,14.70
2019-03-21T19:44:00.473Z,10.77
2019-03-21T19:46:31.282Z,10.07
2019-03-21T19:49:02.051Z,10.07
2019-03-21T19:51:33.101Z,8.37
2019-03-21T19:54:11.311Z,11.97
2019-03-21T19:56:43.397Z,9.60
2019-03-21T19:59:15.684Z,9.27
2019-03-21T20:01:50.589Z,9.77
2019-03-21T20:04:21.430Z,8.87
2019-03-21T20:06:56.692Z,8.63
2019-03-21T20:09:27.782Z,11.50
2019-03-21T20:11:58.785Z,8.53
2019-03-21T20:14:31.936Z,8.60
2019-03-21T20:17:02.321Z,12.13
2019-03-21T20:19:33.814Z,13.20
2019-03-21T20:22:08.544Z,13.60
2019-03-21T20:24:39.556Z,11.40
2019-03-21T20:27:11.730Z,12.23
2019-03-21T20:29:42.562Z,10.60
2019-03-21T20:32:20.395Z,11.30
2019-03-21T20:34:46.166Z,9.97
2019-03-21T20:37:17.239Z,10.50
2019-03-21T20:39:47.823Z,16.63
2019-03-21T20:42:22.061Z,19.47
2019-03-21T20:44:58.400Z,13.87
2019-03-21T20:47:29.087Z,12.23
2019-03-21T20:50:01.230Z,12.60
2019-03-21T20:52:32.099Z,9.87
2019-03-21T20:55:04.141Z,8.73
2019-03-21T20:57:34.974Z,9.90
2019-03-21T21:00:08.991Z,9.97
2019-03-21T21:02:45.018Z,11.97
2019-03-21T21:05:19.291Z,11.60
2019-03-21T21:07:54.551Z,11.93
2019-03-21T21:10:25.502Z,10.40
2019-03-21T21:12:58.772Z,12.33
2019-03-21T21:15:31.816Z,11.13
2019-03-21T21:18:06.403Z,13.90
2019-03-21T21:20:37.557Z,12.80
2019-03-21T21:23:11.249Z,13.43
2019-03-21T21:25:44.385Z,13.40
2019-03-21T21:28:15.016Z,12.30
2019-03-21T21:30:52.414Z,10.37
2019-03-21T21:33:23.287Z,10.87
2019-03-21T21:35:54.451Z,11.20
2019-03-21T21:38:27.530Z,10.07
2019-03-21T21:41:03.715Z,10.90
2019-03-21T21:43:38.554Z,12.10
2019-03-21T21:46:09.143Z,10.47
2019-03-21T21:48:40.549Z,10.43
2019-03-21T21:51:10.902Z,11.13
2019-03-21T21:53:42.315Z,11.30
2019-03-21T21:56:17.671Z,9.90
2019-03-21T21:58:47.963Z,11.80
2019-03-21T22:01:21.826Z,12.20
2019-03-21T22:04:04.040Z,13.37
2019-03-21T22:06:32.970Z,10.17
2019-03-21T22:09:06.387Z,11.57
2019-03-21T22:11:37.167Z,13.13
2019-03-21T22:14:10.294Z,12.47
2019-03-21T22:16:40.650Z,12.77
2019-03-21T22:19:11.599Z,13.37
2019-03-21T22:21:42.392Z,12.43
2019-03-21T22:24:12.722Z,10.93
2019-03-21T22:26:46.441Z,12.40
2019-03-21T22:29:18.619Z,9.17
2019-03-21T22:31:50.052Z,12.53
2019-03-21T22:34:22.653Z,10.07
2019-03-21T22:36:52.736Z,10.87
2019-03-21T22:39:23.155Z,13.03
2019-03-21T22:41:53.594Z,12.07
2019-03-21T22:44:24.123Z,13.13
2019-03-21T22:46:56.605Z,13.27
2019-03-21T22:49:26.930Z,11.33
2019-03-21T22:51:57.706Z,11.20
2019-03-21T22:54:28.114Z,11.00
2019-03-21T22:56:58.483Z,10.83
2019-03-21T22:59:34.573Z,14.17
2019-03-21T23:02:05.416Z,12.17
2019-03-21T23:04:36.032Z,11.73
2019-03-21T23:07:06.416Z,12.47
2019-03-21T23:09:44.575Z,11.97
2019-03-21T23:12:28.127Z,11.60
2019-03-21T23:14:58.169Z,12.80
2019-03-21T23:17:30.530Z,12.77
2019-03-21T23:20:00.634Z,12.27
2019-03-21T23:22:31.354Z,16.67
2019-03-21T23:25:05.028Z,13.67
2019-03-21T23:27:36.830Z,11.13
2019-03-21T23:30:08.853Z,13.10
2019-03-21T23:32:42.310Z,12.07
2019-03-21T23:35:12.648Z,18.40
2019-03-21T23:37:42.725Z,14.63
2019-03-21T23:40:13.029Z,13.27
2019-03-21T23:42:43.426Z,16.37
2019-03-21T23:45:13.814Z,14.43
2019-03-21T23:47:43.819Z,15.57
2019-03-21T23:50:13.889Z,14.83
2019-03-21T23:52:44.203Z,17.40
2019-03-21T23:55:14.875Z,14.60
2019-03-21T23:57:44.950Z,14.20
